Time;durP1;ratioP1;P1;durP2;ratioP2;P2;SDS_P1;SDS_P2;PMS_P1;PMS_P2;Temp;Humidity;BMP_temperature;BMP_pressure;BME280_temperature;BME280_humidity;BME280_pressure;Samples;Min_cycle;Max_cycle;Signal;HPM_P1;HPM_P2
2020/12/22 00:01:10;;;;;;;54.07;30.63;;;4.10;99.90;;;;;;5077175;28;20263;-75
2020/12/22 00:03:37;;;;;;;54.90;30.37;;;4.20;99.90;;;;;;5083176;28;20279;-76
2020/12/22 00:06:04;;;;;;;54.17;31.03;;;4.10;99.90;;;;;;5076899;28;20209;-75
2020/12/22 00:08:31;;;;;;;57.10;31.47;;;4.10;99.90;;;;;;5079378;28;20205;-76
2020/12/22 00:10:57;;;;;;;54.37;30.50;;;4.10;99.90;;;;;;5077731;28;20250;-75
2020/12/22 00:13:24;;;;;;;52.13;30.30;;;4.10;99.90;;;;;;5079060;28;20248;-77
2020/12/22 00:15:51;;;;;;;53.93;30.17;;;4.10;99.90;;;;;;5075181;28;20635;-77
2020/12/22 00:18:17;;;;;;;54.07;30.27;;;4.10;99.90;;;;;;5078782;28;20295;-77
2020/12/22 00:20:44;;;;;;;55.50;29.30;;;4.00;99.90;;;;;;5083226;28;20265;-76
2020/12/22 00:23:11;;;;;;;57.00;30.87;;;4.00;99.90;;;;;;5075827;28;20248;-76
2020/12/22 00:25:43;;;;;;;51.00;30.40;;;4.00;99.90;;;;;;5085418;28;20288;-77
2020/12/22 00:28:12;;;;;;;59.37;31.30;;;4.00;99.90;;;;;;5079858;28;20240;-76
2020/12/22 00:30:38;;;;;;;55.60;30.23;;;4.00;99.90;;;;;;5082944;28;20283;-75
2020/12/22 00:33:06;;;;;;;59.03;31.03;;;4.00;99.90;;;;;;5078759;28;20207;-75
2020/12/22 00:35:32;;;;;;;53.83;30.63;;;4.00;99.90;;;;;;5080815;28;20577;-76
2020/12/22 00:37:59;;;;;;;49.40;29.40;;;4.00;99.90;;;;;;5079012;28;20288;-77
2020/12/22 00:40:27;;;;;;;51.53;29.03;;;4.00;99.90;;;;;;5083898;28;20673;-76
2020/12/22 00:42:54;;;;;;;50.70;30.53;;;4.00;99.90;;;;;;5080763;28;20704;-75
2020/12/22 00:45:21;;;;;;;51.67;29.57;;;4.00;99.90;;;;;;5085847;28;20688;-75
2020/12/22 00:47:48;;;;;;;51.23;30.60;;;4.00;99.90;;;;;;5080759;28;20341;-75
2020/12/22 00:50:14;;;;;;;54.87;30.33;;;4.10;99.90;;;;;;5084092;28;20745;-77
2020/12/22 00:52:41;;;;;;;53.17;30.33;;;4.00;99.90;;;;;;5076451;28;20205;-75
2020/12/22 00:55:07;;;;;;;47.47;29.83;;;4.00;99.90;;;;;;5077681;28;20286;-75
2020/12/22 00:57:35;;;;;;;58.33;31.90;;;4.00;99.90;;;;;;5082712;28;20236;-76
2020/12/22 01:00:02;;;;;;;52.70;29.80;;;3.90;99.90;;;;;;5077310;28;20273;-74
2020/12/22 01:02:28;;;;;;;55.20;30.30;;;3.90;99.90;;;;;;5077703;28;20331;-76
2020/12/22 01:04:54;;;;;;;50.37;29.67;;;3.90;99.90;;;;;;5080632;28;20383;-75
2020/12/22 01:07:21;;;;;;;51.57;29.80;;;3.90;99.90;;;;;;5079662;28;20748;-77
2020/12/22 01:09:47;;;;;;;52.93;29.67;;;3.90;99.90;;;;;;5083748;28;20201;-76
2020/12/22 01:12:14;;;;;;;47.87;28.83;;;3.90;99.90;;;;;;5088791;28;20629;-75
2020/12/22 01:14:41;;;;;;;51.47;28.33;;;3.90;99.90;;;;;;5084814;28;20205;-76
2020/12/22 01:17:07;;;;;;;53.97;28.53;;;3.90;99.90;;;;;;5078252;28;20241;-76
2020/12/22 01:19:34;;;;;;;49.67;29.73;;;3.90;99.90;;;;;;5080061;28;20647;-76
2020/12/22 01:22:00;;;;;;;58.63;31.37;;;3.90;99.90;;;;;;5081239;28;20229;-75
2020/12/22 01:24:27;;;;;;;53.00;29.37;;;3.90;99.90;;;;;;5079271;28;20205;-75
2020/12/22 01:26:53;;;;;;;52.87;30.77;;;3.80;99.90;;;;;;5085654;28;20619;-75
2020/12/22 01:29:19;;;;;;;54.57;29.50;;;3.80;99.90;;;;;;5081564;28;20201;-75
2020/12/22 01:31:47;;;;;;;54.00;30.83;;;3.80;99.90;;;;;;5082347;28;20277;-77
2020/12/22 01:34:15;;;;;;;52.27;28.40;;;3.80;99.90;;;;;;5082188;28;20245;-76
2020/12/22 01:36:41;;;;;;;54.30;30.63;;;3.80;99.90;;;;;;5081649;28;20302;-77
2020/12/22 01:39:08;;;;;;;56.60;30.07;;;3.80;99.90;;;;;;5082924;28;20208;-76
2020/12/22 01:41:35;;;;;;;53.23;29.67;;;3.80;99.90;;;;;;5084554;28;20307;-76
2020/12/22 01:44:07;;;;;;;52.90;28.77;;;3.80;99.90;;;;;;5081812;28;20612;-77
2020/12/22 01:46:36;;;;;;;49.50;28.03;;;3.80;99.90;;;;;;5081938;28;20600;-76
2020/12/22 01:49:07;;;;;;;51.20;28.83;;;3.80;99.90;;;;;;5078739;28;20204;-76
2020/12/22 01:51:34;;;;;;;47.53;26.77;;;3.80;99.90;;;;;;5084706;28;20273;-76
2020/12/22 01:54:01;;;;;;;49.57;27.83;;;3.80;99.90;;;;;;5076423;28;20292;-76
2020/12/22 01:56:28;;;;;;;45.20;28.50;;;3.80;99.90;;;;;;5081859;28;20208;-76
2020/12/22 01:58:54;;;;;;;45.03;27.40;;;3.90;99.90;;;;;;5079803;28;20213;-76
2020/12/22 02:01:21;;;;;;;42.97;24.53;;;3.80;99.90;;;;;;5084933;28;20221;-76
2020/12/22 02:03:48;;;;;;;44.13;26.30;;;3.80;99.90;;;;;;5084355;28;20236;-75
2020/12/22 02:06:15;;;;;;;45.03;25.83;;;3.80;99.90;;;;;;5081573;28;20211;-74
2020/12/22 02:08:41;;;;;;;47.60;26.40;;;3.90;99.90;;;;;;5084403;28;20207;-76
2020/12/22 02:11:07;;;;;;;40.90;23.87;;;3.80;99.90;;;;;;5079605;28;20296;-75
2020/12/22 02:13:34;;;;;;;40.07;24.40;;;3.90;99.90;;;;;;5080575;28;20202;-75
2020/12/22 02:16:01;;;;;;;39.53;24.80;;;3.90;99.90;;;;;;5079097;28;20237;-75
2020/12/22 02:18:28;;;;;;;41.97;24.77;;;4.00;99.90;;;;;;5077352;28;20650;-76
2020/12/22 02:21:01;;;;;;;40.40;22.97;;;3.90;99.90;;;;;;5081029;28;20203;-75
2020/12/22 02:23:27;;;;;;;37.20;23.37;;;4.00;99.90;;;;;;5076339;28;20215;-75
2020/12/22 02:25:54;;;;;;;40.17;23.33;;;4.00;99.90;;;;;;5078073;28;20295;-75
2020/12/22 02:28:20;;;;;;;40.67;24.53;;;4.00;99.90;;;;;;5084954;28;20244;-76
2020/12/22 02:30:46;;;;;;;41.07;24.17;;;3.90;99.90;;;;;;5080685;28;20293;-76
2020/12/22 02:33:13;;;;;;;38.90;23.67;;;4.00;99.90;;;;;;5085229;28;20300;-75
2020/12/22 02:35:40;;;;;;;40.43;22.83;;;3.90;99.90;;;;;;5085333;28;20678;-75
2020/12/22 02:38:07;;;;;;;40.23;22.67;;;3.90;99.90;;;;;;5081276;28;20209;-75
2020/12/22 02:40:34;;;;;;;42.77;23.07;;;4.00;99.90;;;;;;5078533;28;20213;-75
2020/12/22 02:43:09;;;;;;;37.27;22.00;;;3.90;99.90;;;;;;5077530;28;20209;-75
2020/12/22 02:45:36;;;;;;;41.00;23.20;;;4.00;99.90;;;;;;5087744;28;20220;-76
2020/12/22 02:48:03;;;;;;;35.03;21.57;;;3.90;99.90;;;;;;5075682;28;20234;-75
2020/12/22 02:50:29;;;;;;;36.27;21.77;;;3.90;99.90;;;;;;5076668;28;20198;-76
2020/12/22 02:52:55;;;;;;;33.50;21.10;;;4.00;99.90;;;;;;5074596;28;20203;-75
2020/12/22 02:55:23;;;;;;;31.40;21.00;;;4.00;99.90;;;;;;5079388;28;20737;-75
2020/12/22 02:57:49;;;;;;;35.30;22.27;;;4.00;99.90;;;;;;5081322;28;20208;-75
2020/12/22 03:00:17;;;;;;;37.17;21.67;;;4.00;99.90;;;;;;5077667;28;20629;-75
2020/12/22 03:02:43;;;;;;;37.70;23.47;;;4.00;99.90;;;;;;5076274;28;20220;-75
2020/12/22 03:05:10;;;;;;;38.33;22.90;;;4.00;99.90;;;;;;5081748;28;20315;-75
2020/12/22 03:07:36;;;;;;;39.13;23.10;;;4.00;99.90;;;;;;5082210;28;20205;-75
2020/12/22 03:10:05;;;;;;;39.80;23.93;;;4.00;99.90;;;;;;5080715;28;20233;-76
2020/12/22 03:12:32;;;;;;;38.67;22.70;;;3.90;99.90;;;;;;5077833;28;20256;-76
2020/12/22 03:14:58;;;;;;;44.33;26.23;;;3.90;99.90;;;;;;5078745;28;20202;-76
2020/12/22 03:17:25;;;;;;;43.83;26.47;;;3.90;99.90;;;;;;5083714;28;20284;-75
2020/12/22 03:19:51;;;;;;;44.93;26.93;;;3.80;99.90;;;;;;5080934;28;20711;-76
2020/12/22 03:22:18;;;;;;;42.83;25.70;;;3.80;99.90;;;;;;5081299;28;20312;-75
2020/12/22 03:24:44;;;;;;;41.77;25.07;;;3.80;99.90;;;;;;5082284;28;20201;-75
2020/12/22 03:27:10;;;;;;;41.97;24.33;;;3.80;99.90;;;;;;5079757;28;20615;-74
2020/12/22 03:29:37;;;;;;;39.27;23.57;;;3.70;99.90;;;;;;5079907;28;20675;-75
2020/12/22 03:32:04;;;;;;;45.13;25.07;;;3.70;99.90;;;;;;5079294;28;20243;-75
2020/12/22 03:34:30;;;;;;;41.17;24.90;;;3.70;99.90;;;;;;5081183;28;20197;-77
2020/12/22 03:36:58;;;;;;;47.27;27.37;;;3.70;99.90;;;;;;5079545;28;20201;-75
2020/12/22 03:39:24;;;;;;;42.97;25.03;;;3.60;99.90;;;;;;5082060;28;20207;-75
2020/12/22 03:41:50;;;;;;;46.87;27.10;;;3.60;99.90;;;;;;5077944;28;20308;-75
2020/12/22 03:44:17;;;;;;;48.27;27.90;;;3.60;99.90;;;;;;5076908;28;20271;-76
2020/12/22 03:46:50;;;;;;;46.10;24.87;;;3.50;99.90;;;;;;5077091;28;20235;-75
2020/12/22 03:49:16;;;;;;;52.30;27.77;;;3.50;99.90;;;;;;5085651;28;20682;-74
2020/12/22 03:51:43;;;;;;;45.10;26.83;;;3.50;99.90;;;;;;5074440;28;20233;-76
2020/12/22 03:54:10;;;;;;;45.20;25.03;;;3.40;99.90;;;;;;5079639;28;20209;-75
2020/12/22 03:56:36;;;;;;;39.57;24.33;;;3.40;99.90;;;;;;5076960;28;20336;-76
2020/12/22 03:59:03;;;;;;;48.57;26.90;;;3.40;99.90;;;;;;5076828;28;20324;-77
2020/12/22 04:01:29;;;;;;;44.30;26.83;;;3.40;99.90;;;;;;5082214;28;20205;-76
2020/12/22 04:03:56;;;;;;;48.60;28.23;;;3.40;99.90;;;;;;5084506;28;20240;-74
2020/12/22 04:06:23;;;;;;;43.37;26.30;;;3.40;99.90;;;;;;5084849;28;20662;-74
2020/12/22 04:08:52;;;;;;;47.33;27.40;;;3.40;99.90;;;;;;5085252;28;20657;-76
2020/12/22 04:11:19;;;;;;;43.93;25.37;;;3.40;99.90;;;;;;5090117;28;20286;-76
2020/12/22 04:13:45;;;;;;;43.27;25.87;;;3.40;99.90;;;;;;5079989;28;20205;-75
2020/12/22 04:16:12;;;;;;;45.60;26.83;;;3.40;99.90;;;;;;5079854;28;20233;-74
2020/12/22 04:18:38;;;;;;;43.77;26.10;;;3.40;99.90;;;;;;5081640;28;20229;-74
2020/12/22 04:21:05;;;;;;;46.30;27.00;;;3.40;99.90;;;;;;5080759;28;20296;-74
2020/12/22 04:23:32;;;;;;;45.87;26.43;;;3.40;99.90;;;;;;5079382;28;20768;-76
2020/12/22 04:25:58;;;;;;;43.00;26.23;;;3.40;99.90;;;;;;5082652;28;20224;-74
2020/12/22 04:28:25;;;;;;;42.57;25.13;;;3.30;99.90;;;;;;5087143;28;20204;-74
2020/12/22 04:30:53;;;;;;;47.20;25.90;;;3.20;99.90;;;;;;5079215;28;20212;-74
2020/12/22 04:33:19;;;;;;;44.73;27.07;;;3.30;99.90;;;;;;5080920;28;20204;-75
2020/12/22 04:35:46;;;;;;;43.13;26.77;;;3.30;99.90;;;;;;5082288;28;20238;-75
2020/12/22 04:38:13;;;;;;;45.03;25.63;;;3.30;99.90;;;;;;5084408;28;20216;-74
2020/12/22 04:40:39;;;;;;;43.37;25.93;;;3.30;99.90;;;;;;5082459;28;20709;-75
2020/12/22 04:43:06;;;;;;;45.83;26.90;;;3.30;99.90;;;;;;5083975;28;20258;-74
2020/12/22 04:45:34;;;;;;;42.57;25.17;;;3.30;99.90;;;;;;5088888;28;20196;-75
2020/12/22 04:48:00;;;;;;;41.73;25.60;;;3.30;99.90;;;;;;5080179;28;20243;-74
2020/12/22 04:50:26;;;;;;;46.67;25.17;;;3.40;99.90;;;;;;5081187;28;20231;-75
2020/12/22 04:52:53;;;;;;;42.83;23.83;;;3.40;99.90;;;;;;5078305;28;20579;-75
2020/12/22 04:55:21;;;;;;;48.20;24.63;;;3.40;99.90;;;;;;5081582;28;20213;-74
2020/12/22 04:57:51;;;;;;;40.37;25.10;;;3.40;99.90;;;;;;5077054;28;20203;-74
2020/12/22 05:00:19;;;;;;;43.07;25.17;;;3.40;99.90;;;;;;5080876;28;20205;-75
2020/12/22 05:02:45;;;;;;;46.07;25.83;;;3.40;99.90;;;;;;5078351;28;20753;-75
2020/12/22 05:05:13;;;;;;;39.60;25.27;;;3.50;99.90;;;;;;5080538;28;20785;-76
2020/12/22 05:07:41;;;;;;;43.33;25.77;;;3.50;99.90;;;;;;5083711;28;20709;-76
2020/12/22 05:10:08;;;;;;;44.47;24.97;;;3.40;99.90;;;;;;5087795;28;20232;-75
2020/12/22 05:12:38;;;;;;;43.43;23.90;;;3.50;99.90;;;;;;5083915;28;20281;-76
2020/12/22 05:15:06;;;;;;;38.77;22.97;;;3.50;99.90;;;;;;5083733;28;20551;-76
2020/12/22 05:17:38;;;;;;;40.03;24.00;;;3.50;99.90;;;;;;5079254;28;20549;-75
2020/12/22 05:20:04;;;;;;;40.67;23.30;;;3.50;99.90;;;;;;5082149;28;20283;-76
2020/12/22 05:22:36;;;;;;;44.47;24.17;;;3.50;99.90;;;;;;5078823;28;20327;-77
2020/12/22 05:25:03;;;;;;;39.97;24.67;;;3.50;99.90;;;;;;5080349;28;20219;-75
2020/12/22 05:27:30;;;;;;;37.47;23.17;;;3.50;99.90;;;;;;5086572;28;20295;-76
2020/12/22 05:30:01;;;;;;;40.43;24.30;;;3.50;99.90;;;;;;5083840;28;20281;-76
2020/12/22 05:32:29;;;;;;;38.50;22.87;;;3.50;99.90;;;;;;5082172;28;20218;-76
2020/12/22 05:34:55;;;;;;;44.80;25.43;;;3.50;99.90;;;;;;5080725;28;20292;-75
2020/12/22 05:37:24;;;;;;;38.00;22.40;;;3.50;99.90;;;;;;5077849;28;20201;-75
2020/12/22 05:39:50;;;;;;;41.17;23.07;;;3.50;99.90;;;;;;5077614;28;20208;-75
2020/12/22 05:42:18;;;;;;;40.77;22.70;;;3.60;99.90;;;;;;5083654;28;20279;-75
2020/12/22 05:44:48;;;;;;;41.53;22.47;;;3.50;99.90;;;;;;5081775;28;20289;-74
2020/12/22 05:47:17;;;;;;;39.37;23.03;;;3.50;99.90;;;;;;5081847;28;20292;-75
2020/12/22 05:49:54;;;;;;;37.47;21.67;;;3.50;99.90;;;;;;5082291;28;20206;-75
2020/12/22 05:52:22;;;;;;;38.43;22.27;;;3.50;99.90;;;;;;5086122;28;20287;-75
2020/12/22 05:54:51;;;;;;;36.57;21.70;;;3.50;99.90;;;;;;5083404;28;20707;-76
2020/12/22 05:57:21;;;;;;;38.57;22.03;;;3.50;99.90;;;;;;5082202;28;20205;-77
2020/12/22 05:59:48;;;;;;;38.07;21.00;;;3.50;99.90;;;;;;5088886;28;20208;-78
2020/12/22 06:02:27;;;;;;;35.37;21.40;;;3.50;99.90;;;;;;5082681;28;20586;-77
2020/12/22 06:04:55;;;;;;;35.03;20.17;;;3.40;99.90;;;;;;5082181;28;20252;-76
2020/12/22 06:07:21;;;;;;;36.63;20.47;;;3.40;99.90;;;;;;5079553;28;20292;-76
2020/12/22 06:09:48;;;;;;;36.23;20.77;;;3.40;99.90;;;;;;5081436;28;20254;-77
2020/12/22 06:12:15;;;;;;;36.77;20.27;;;3.40;99.90;;;;;;5080475;28;20221;-76
2020/12/22 06:14:44;;;;;;;36.93;20.23;;;3.40;99.90;;;;;;5081806;28;20258;-75
2020/12/22 06:17:12;;;;;;;37.87;20.80;;;3.50;99.90;;;;;;5079352;28;20286;-76
2020/12/22 06:19:40;;;;;;;33.90;20.07;;;3.50;99.90;;;;;;5080553;28;20236;-76
2020/12/22 06:22:09;;;;;;;35.90;20.93;;;3.40;99.90;;;;;;5077811;28;20320;-76
2020/12/22 06:24:37;;;;;;;34.10;20.63;;;3.40;99.90;;;;;;5078557;28;20205;-76
2020/12/22 06:27:05;;;;;;;33.70;19.97;;;3.50;99.90;;;;;;5078302;28;20211;-76
2020/12/22 06:29:32;;;;;;;35.50;20.13;;;3.40;99.90;;;;;;5083657;28;20308;-75
2020/12/22 06:32:25;;;;;;;35.60;20.20;;;3.40;99.90;;;;;;5080462;28;20209;-75
2020/12/22 06:34:53;;;;;;;36.23;20.43;;;3.40;99.90;;;;;;5081187;28;20574;-75
2020/12/22 06:37:24;;;;;;;32.40;19.57;;;3.40;99.90;;;;;;5077600;28;20292;-75
2020/12/22 06:39:51;;;;;;;31.67;18.73;;;3.40;99.90;;;;;;5079476;28;20201;-76
2020/12/22 06:42:44;;;;;;;37.20;20.00;;;3.30;99.90;;;;;;5084065;28;20229;-76
2020/12/22 06:45:27;;;;;;;35.97;20.53;;;3.30;99.90;;;;;;5079813;28;20312;-75
2020/12/22 06:47:54;;;;;;;33.23;19.87;;;3.30;99.90;;;;;;5077234;28;20201;-74
2020/12/22 06:50:39;;;;;;;36.47;21.03;;;3.30;99.90;;;;;;5079454;28;20201;-74
2020/12/22 06:53:05;;;;;;;31.90;18.17;;;3.30;99.90;;;;;;5082194;28;20212;-76
2020/12/22 06:55:49;;;;;;;37.43;21.17;;;3.30;99.90;;;;;;5077367;28;20215;-75
2020/12/22 06:58:36;;;;;;;31.27;18.80;;;3.20;99.90;;;;;;5076545;28;20208;-74
2020/12/22 07:01:34;;;;;;;36.17;20.23;;;3.20;99.90;;;;;;5086578;28;20218;-75
2020/12/22 07:04:18;;;;;;;33.33;19.70;;;3.20;99.90;;;;;;5081361;28;20316;-77
2020/12/22 07:06:58;;;;;;;33.67;18.77;;;3.20;99.90;;;;;;5076120;28;20288;-76
2020/12/22 07:09:27;;;;;;;32.43;18.33;;;3.20;99.90;;;;;;5085476;28;20209;-77
2020/12/22 07:11:55;;;;;;;34.43;19.07;;;3.20;99.90;;;;;;5097021;28;20708;-77
2020/12/22 07:14:23;;;;;;;32.17;19.10;;;3.20;99.90;;;;;;5084819;28;20227;-77
2020/12/22 07:16:55;;;;;;;29.87;17.70;;;3.20;99.90;;;;;;5087812;28;20215;-77
2020/12/22 07:19:28;;;;;;;34.07;18.70;;;3.30;99.90;;;;;;5087443;28;20233;-76
2020/12/22 07:21:57;;;;;;;32.23;17.90;;;3.30;99.90;;;;;;5076249;28;20225;-76
2020/12/22 07:24:25;;;;;;;31.30;17.20;;;3.30;99.90;;;;;;5076001;28;20292;-76
2020/12/22 07:26:52;;;;;;;30.87;18.73;;;3.30;99.90;;;;;;5089120;28;20204;-76
2020/12/22 07:29:18;;;;;;;26.60;16.60;;;3.30;99.90;;;;;;5095682;28;20291;-76
2020/12/22 07:31:46;;;;;;;29.10;17.73;;;3.30;99.90;;;;;;5092541;28;20978;-76
2020/12/22 07:34:13;;;;;;;31.50;17.50;;;3.30;99.90;;;;;;5081228;28;20240;-76
2020/12/22 07:36:40;;;;;;;29.17;17.70;;;3.40;99.90;;;;;;5078536;28;22425;-75
2020/12/22 07:39:26;;;;;;;28.47;17.77;;;3.40;99.90;;;;;;5086219;28;20252;-78
2020/12/22 07:41:52;;;;;;;30.33;18.00;;;3.40;99.90;;;;;;5094016;28;20204;-77
2020/12/22 07:44:20;;;;;;;34.37;18.20;;;3.40;99.90;;;;;;5102528;28;20200;-78
2020/12/22 07:46:49;;;;;;;29.03;17.43;;;3.50;99.90;;;;;;5096972;28;20220;-77
2020/12/22 07:49:16;;;;;;;30.70;17.27;;;3.50;99.90;;;;;;5096410;28;20217;-76
2020/12/22 07:51:44;;;;;;;32.20;18.27;;;3.50;99.90;;;;;;5092665;28;20219;-78
2020/12/22 07:54:11;;;;;;;29.20;18.03;;;3.50;99.90;;;;;;5103804;28;20285;-78
2020/12/22 07:56:40;;;;;;;32.30;18.73;;;3.50;99.90;;;;;;5092313;28;20268;-77
2020/12/22 07:59:08;;;;;;;32.30;17.77;;;3.60;99.90;;;;;;5089398;28;20241;-77
2020/12/22 08:01:43;;;;;;;32.53;18.43;;;3.60;99.90;;;;;;5085062;28;20236;-77
2020/12/22 08:04:16;;;;;;;28.43;17.53;;;3.60;99.90;;;;;;5098018;28;20251;-76
2020/12/22 08:06:52;;;;;;;31.30;16.83;;;3.60;99.90;;;;;;5078907;28;20212;-74
2020/12/22 08:09:22;;;;;;;30.87;18.23;;;3.70;99.90;;;;;;5081831;28;20197;-73
2020/12/22 08:11:51;;;;;;;28.53;17.10;;;3.60;99.90;;;;;;5088521;28;20220;-75
2020/12/22 08:14:20;;;;;;;25.00;16.43;;;3.50;99.90;;;;;;5084987;28;20205;-77
2020/12/22 08:16:48;;;;;;;28.50;17.47;;;3.50;99.90;;;;;;5093632;28;20251;-77
2020/12/22 08:19:16;;;;;;;27.87;17.30;;;3.50;99.90;;;;;;5095823;28;20212;-78
2020/12/22 08:21:43;;;;;;;26.70;15.97;;;3.40;99.90;;;;;;5085627;28;20209;-75
2020/12/22 08:24:10;;;;;;;34.63;18.77;;;3.40;99.90;;;;;;5089247;28;20228;-75
2020/12/22 08:26:37;;;;;;;27.60;17.07;;;3.40;99.90;;;;;;5097538;28;20681;-74
2020/12/22 08:29:04;;;;;;;28.77;18.30;;;3.30;99.90;;;;;;5088008;28;20211;-73
2020/12/22 08:31:33;;;;;;;29.07;17.00;;;3.20;99.90;;;;;;5096054;28;20200;-76
2020/12/22 08:34:05;;;;;;;27.73;16.57;;;3.20;99.90;;;;;;5091608;28;20261;-75
2020/12/22 08:36:32;;;;;;;32.90;17.70;;;3.20;99.90;;;;;;5091396;28;20317;-74
2020/12/22 08:39:16;;;;;;;28.70;16.87;;;3.20;99.90;;;;;;5098872;28;20209;-74
2020/12/22 08:41:43;;;;;;;30.60;18.90;;;3.10;99.90;;;;;;5095759;28;20285;-76
2020/12/22 08:44:11;;;;;;;34.37;17.17;;;3.10;99.90;;;;;;5085405;28;20277;-73
2020/12/22 08:46:41;;;;;;;29.40;16.33;;;3.10;99.90;;;;;;5084717;28;20280;-76
2020/12/22 08:49:12;;;;;;;29.67;15.93;;;3.10;99.90;;;;;;5077694;28;20284;-73
2020/12/22 08:51:42;;;;;;;30.97;17.90;;;3.10;99.90;;;;;;5081276;28;20236;-78
2020/12/22 08:54:09;;;;;;;29.17;17.57;;;3.00;99.90;;;;;;5086692;28;20228;-77
2020/12/22 08:56:37;;;;;;;27.03;16.30;;;3.00;99.90;;;;;;5083076;28;20280;-75
2020/12/22 08:59:05;;;;;;;28.43;16.77;;;2.90;99.90;;;;;;5095094;28;20216;-76
2020/12/22 09:01:39;;;;;;;28.13;16.60;;;2.90;99.90;;;;;;5088902;28;20239;-76
2020/12/22 09:04:06;;;;;;;28.17;17.07;;;2.90;99.90;;;;;;5088778;28;20224;-76
2020/12/22 09:06:35;;;;;;;25.50;16.67;;;2.90;99.90;;;;;;5094555;28;20260;-76
2020/12/22 09:09:03;;;;;;;27.60;16.87;;;2.90;99.90;;;;;;5093528;28;20215;-76
2020/12/22 09:11:29;;;;;;;25.47;15.33;;;2.90;99.90;;;;;;5092190;28;20248;-76
2020/12/22 09:14:04;;;;;;;25.33;15.83;;;2.90;99.90;;;;;;5086503;28;20243;-78
2020/12/22 09:16:49;;;;;;;27.07;16.37;;;2.90;99.90;;;;;;5081284;28;20193;-77
2020/12/22 09:19:16;;;;;;;29.10;17.03;;;3.00;99.90;;;;;;5079622;28;20232;-77
2020/12/22 09:21:43;;;;;;;28.00;15.70;;;2.90;99.90;;;;;;5090578;28;20625;-77
2020/12/22 09:24:16;;;;;;;27.10;16.67;;;3.00;99.90;;;;;;5094198;28;20689;-75
2020/12/22 09:27:04;;;;;;;31.77;16.93;;;3.00;99.90;;;;;;5088635;28;20200;-77
2020/12/22 09:29:31;;;;;;;27.27;15.40;;;3.00;99.90;;;;;;5088618;28;20219;-75
2020/12/22 09:31:59;;;;;;;29.60;16.07;;;3.10;99.90;;;;;;5092560;28;20269;-75
2020/12/22 09:34:28;;;;;;;24.60;15.17;;;3.10;99.90;;;;;;5089875;28;20219;-76
2020/12/22 09:36:56;;;;;;;23.10;15.23;;;3.10;99.90;;;;;;5095037;28;20649;-74
2020/12/22 09:39:24;;;;;;;25.87;14.77;;;3.10;99.90;;;;;;5083716;28;20292;-76
2020/12/22 09:41:51;;;;;;;27.07;16.57;;;3.10;99.90;;;;;;5093075;28;20268;-75
2020/12/22 09:44:21;;;;;;;28.73;15.80;;;3.10;99.90;;;;;;5091987;28;20264;-77
2020/12/22 09:46:49;;;;;;;27.03;15.17;;;3.10;99.90;;;;;;5094663;28;20201;-79
2020/12/22 09:49:17;;;;;;;25.50;15.90;;;3.10;99.90;;;;;;5104525;28;20212;-79
2020/12/22 09:51:44;;;;;;;24.27;15.37;;;3.10;99.90;;;;;;5085210;28;20669;-76
2020/12/22 09:54:11;;;;;;;24.67;14.40;;;3.20;99.90;;;;;;5088404;28;20232;-75
2020/12/22 09:56:38;;;;;;;26.53;14.90;;;3.10;99.90;;;;;;5090890;28;20231;-76
2020/12/22 09:59:05;;;;;;;28.60;15.80;;;3.10;99.90;;;;;;5085076;28;20206;-76
2020/12/22 10:01:33;;;;;;;27.87;15.03;;;3.20;99.90;;;;;;5088951;28;20288;-77
2020/12/22 10:03:59;;;;;;;25.30;15.13;;;3.20;99.90;;;;;;5089657;28;20232;-77
2020/12/22 10:06:27;;;;;;;29.43;14.80;;;3.10;99.90;;;;;;5095345;28;20262;-78
2020/12/22 10:08:55;;;;;;;29.07;16.57;;;3.20;99.90;;;;;;5086911;28;20652;-77
2020/12/22 10:11:22;;;;;;;26.20;15.80;;;3.10;99.90;;;;;;5092017;28;20267;-77
2020/12/22 10:13:50;;;;;;;25.30;15.67;;;3.30;99.90;;;;;;5093833;28;20292;-79
2020/12/22 10:16:18;;;;;;;23.20;15.10;;;3.10;99.90;;;;;;5088241;28;20243;-77
2020/12/22 10:18:47;;;;;;;28.13;15.50;;;3.10;99.90;;;;;;5089852;28;20305;-76
2020/12/22 10:21:15;;;;;;;31.63;16.43;;;3.20;99.90;;;;;;5095757;28;20205;-75
2020/12/22 10:23:43;;;;;;;27.33;15.30;;;3.20;99.90;;;;;;5093300;28;20260;-75
2020/12/22 10:26:11;;;;;;;24.57;14.30;;;3.20;99.90;;;;;;5089193;28;20705;-76
2020/12/22 10:28:39;;;;;;;28.10;16.20;;;3.20;99.90;;;;;;5087720;28;20544;-77
2020/12/22 10:31:10;;;;;;;26.47;14.90;;;3.10;99.90;;;;;;5093456;28;20232;-77
2020/12/22 10:33:37;;;;;;;25.73;15.27;;;3.20;99.90;;;;;;5086113;28;20193;-79
2020/12/22 10:36:03;;;;;;;28.10;15.53;;;3.20;99.90;;;;;;5082765;28;20668;-80
2020/12/22 10:38:30;;;;;;;22.80;14.20;;;3.20;99.90;;;;;;5098796;28;20209;-81
2020/12/22 10:40:58;;;;;;;28.40;15.23;;;3.20;99.90;;;;;;5087200;28;20209;-78
2020/12/22 10:43:24;;;;;;;23.77;14.17;;;3.30;99.90;;;;;;5103006;28;20228;-79
2020/12/22 10:45:51;;;;;;;25.57;13.37;;;3.30;99.90;;;;;;5101348;28;20201;-79
2020/12/22 10:48:17;;;;;;;24.93;14.10;;;3.30;99.90;;;;;;5096020;28;20205;-80
2020/12/22 10:50:44;;;;;;;25.77;14.40;;;3.30;99.90;;;;;;5091752;28;20192;-80
2020/12/22 10:53:10;;;;;;;22.13;13.97;;;3.30;99.90;;;;;;5088559;28;20206;-79
2020/12/22 10:55:37;;;;;;;21.23;13.93;;;3.30;99.90;;;;;;5085804;28;20737;-77
2020/12/22 10:58:07;;;;;;;28.23;14.67;;;3.40;99.90;;;;;;5089944;28;20292;-77
2020/12/22 11:00:33;;;;;;;25.03;14.50;;;3.40;99.90;;;;;;5085664;28;20208;-77
2020/12/22 11:03:03;;;;;;;24.23;14.40;;;3.40;99.90;;;;;;5084584;28;20217;-76
2020/12/22 11:08:17;;;;;;;24.97;14.67;;;3.40;99.90;;;;;;5085659;28;20242;-78
2020/12/22 11:10:43;;;;;;;18.97;13.07;;;3.40;99.90;;;;;;5098591;28;20204;-77
2020/12/22 11:13:10;;;;;;;20.77;13.10;;;3.40;99.90;;;;;;5081848;28;20236;-76
2020/12/22 11:15:37;;;;;;;27.37;13.77;;;3.40;99.90;;;;;;5087309;28;20209;-77
2020/12/22 11:18:04;;;;;;;24.43;13.27;;;3.50;99.90;;;;;;5088507;28;20209;-77
2020/12/22 11:20:30;;;;;;;24.87;14.70;;;3.40;99.90;;;;;;5084667;28;20247;-74
2020/12/22 11:22:57;;;;;;;21.50;13.43;;;3.50;99.90;;;;;;5087491;28;20635;-74
2020/12/22 11:25:23;;;;;;;25.30;14.40;;;3.50;99.90;;;;;;5080683;28;20244;-72
2020/12/22 11:27:50;;;;;;;24.17;14.90;;;3.50;99.90;;;;;;5085621;28;20213;-73
2020/12/22 11:30:17;;;;;;;22.87;13.90;;;3.50;99.90;;;;;;5080404;28;20264;-74
2020/12/22 11:32:43;;;;;;;24.07;14.33;;;3.50;99.90;;;;;;5088559;28;20323;-71
2020/12/22 11:35:10;;;;;;;25.17;14.57;;;3.50;99.90;;;;;;5082852;28;20258;-73
2020/12/22 11:37:36;;;;;;;23.40;13.40;;;3.60;99.90;;;;;;5093708;28;20200;-72
2020/12/22 11:40:04;;;;;;;25.40;15.03;;;3.60;99.90;;;;;;5095041;28;20203;-74
2020/12/22 11:42:31;;;;;;;22.03;13.20;;;3.60;99.90;;;;;;5085165;28;20225;-73
2020/12/22 11:44:57;;;;;;;22.67;13.40;;;3.60;99.90;;;;;;5086049;28;20646;-72
2020/12/22 11:47:25;;;;;;;23.13;13.27;;;3.60;99.90;;;;;;5083327;28;20232;-72
2020/12/22 11:49:52;;;;;;;23.93;14.43;;;3.70;99.90;;;;;;5076375;28;20676;-72
2020/12/22 11:52:20;;;;;;;20.13;13.33;;;3.70;99.90;;;;;;5077488;28;20717;-74
2020/12/22 11:54:47;;;;;;;20.77;13.17;;;3.70;99.90;;;;;;5080149;28;20204;-71
2020/12/22 11:57:14;;;;;;;22.77;13.67;;;3.70;99.90;;;;;;5088518;28;20205;-70
2020/12/22 11:59:40;;;;;;;24.70;14.10;;;3.70;99.90;;;;;;5091556;28;20310;-73
2020/12/22 12:02:08;;;;;;;24.83;14.33;;;3.70;99.90;;;;;;5075154;28;20359;-76
2020/12/22 12:04:36;;;;;;;19.57;12.80;;;3.70;99.90;;;;;;5086914;28;20350;-72
2020/12/22 12:07:03;;;;;;;23.37;13.87;;;3.70;99.90;;;;;;5080815;28;20232;-72
2020/12/22 12:09:29;;;;;;;24.90;14.47;;;3.70;99.90;;;;;;5078033;28;20717;-76
2020/12/22 12:11:55;;;;;;;23.63;15.43;;;3.70;99.90;;;;;;5075989;28;20239;-72
2020/12/22 12:14:25;;;;;;;21.87;14.53;;;3.70;99.90;;;;;;5075629;28;20201;-78
2020/12/22 12:16:51;;;;;;;22.97;13.43;;;3.70;99.90;;;;;;5091118;28;20205;-77
2020/12/22 12:19:19;;;;;;;23.23;14.37;;;3.70;99.90;;;;;;5088162;28;20315;-77
2020/12/22 12:21:47;;;;;;;22.13;13.93;;;3.60;99.90;;;;;;5085753;28;20201;-76
2020/12/22 12:24:14;;;;;;;22.30;13.27;;;3.70;99.90;;;;;;5086785;28;20308;-74
2020/12/22 12:26:40;;;;;;;20.17;13.00;;;3.70;99.90;;;;;;5087036;28;20201;-75
2020/12/22 12:29:07;;;;;;;20.60;13.87;;;3.70;99.90;;;;;;5093342;28;20239;-75
2020/12/22 12:31:34;;;;;;;23.83;14.63;;;3.70;99.90;;;;;;5091771;28;20287;-76
2020/12/22 12:34:02;;;;;;;21.53;14.00;;;3.70;99.90;;;;;;5096877;28;20231;-74
2020/12/22 12:36:29;;;;;;;22.33;13.73;;;3.70;99.90;;;;;;5090115;28;20235;-74
2020/12/22 12:38:56;;;;;;;20.70;13.20;;;3.70;99.90;;;;;;5077869;28;20205;-72
2020/12/22 12:41:23;;;;;;;23.03;14.23;;;3.70;99.90;;;;;;5079736;28;20600;-74
2020/12/22 12:43:49;;;;;;;24.37;13.90;;;3.70;99.90;;;;;;5079494;28;20312;-73